Time;durP1;ratioP1;P1;durP2;ratioP2;P2;SDS_P1;SDS_P2;PMS_P1;PMS_P2;Temp;Humidity;BMP_temperature;BMP_pressure;BME280_temperature;BME280_humidity;BME280_pressure;Samples;Min_cycle;Max_cycle;Signal;HPM_P1;HPM_P2
2023/02/06 00:00:49;;;;;;;7.83;4.37;;;-2.70;99.90;;;;;;5016367;28;20235;-87
2023/02/06 00:03:15;;;;;;;3.37;3.07;;;-2.80;99.90;;;;;;5014927;28;20185;-88
2023/02/06 00:05:41;;;;;;;6.37;4.47;;;-2.10;99.90;;;;;;5000204;28;20798;-87
2023/02/06 00:08:07;;;;;;;11.77;6.40;;;-1.90;99.90;;;;;;5000123;28;20586;-87
2023/02/06 00:10:33;;;;;;;8.87;4.63;;;-1.90;99.90;;;;;;5015904;28;20180;-87
2023/02/06 00:12:59;;;;;;;3.87;3.20;;;-2.80;99.90;;;;;;5016364;28;20184;-87
2023/02/06 00:15:24;;;;;;;8.10;4.83;;;-2.70;99.90;;;;;;4999057;28;20226;-87
2023/02/06 00:17:50;;;;;;;8.90;5.17;;;-2.70;99.90;;;;;;5016341;28;20188;-88
2023/02/06 00:20:16;;;;;;;15.30;5.97;;;;;;;;;;4998621;28;20699;-87
2023/02/06 00:22:42;;;;;;;2.80;2.43;;;;;;;;;;5015727;28;20648;-87
2023/02/06 00:25:08;;;;;;;14.40;5.20;;;-2.80;99.90;;;;;;5016203;28;20266;-87
2023/02/06 00:27:34;;;;;;;16.33;4.30;;;-2.70;99.90;;;;;;4996241;28;20288;-86
2023/02/06 00:29:59;;;;;;;5.13;3.57;;;-2.80;99.90;;;;;;4993602;28;20198;-86
2023/02/06 00:32:25;;;;;;;4.27;2.97;;;-2.80;99.90;;;;;;4999100;28;20201;-87
2023/02/06 00:34:51;;;;;;;3.23;2.83;;;-1.60;99.90;;;;;;5016044;28;20734;-87
2023/02/06 00:37:17;;;;;;;9.63;5.30;;;;;;;;;;5016922;28;20626;-86
2023/02/06 00:39:42;;;;;;;13.60;5.83;;;-2.70;99.90;;;;;;5035694;28;20232;-87
2023/02/06 00:42:08;;;;;;;5.03;3.63;;;-2.70;99.90;;;;;;4985414;28;20184;-87
2023/02/06 00:44:34;;;;;;;12.77;4.60;;;-2.10;99.90;;;;;;5016105;28;20234;-87
2023/02/06 00:47:00;;;;;;;4.73;4.30;;;-2.60;99.90;;;;;;5015787;28;20185;-88
2023/02/06 00:49:26;;;;;;;6.60;3.43;;;;;;;;;;5033485;28;20195;-88
2023/02/06 00:51:52;;;;;;;3.80;2.90;;;;;;;;;;5015826;28;20202;-88
2023/02/06 00:54:19;;;;;;;6.93;3.67;;;-2.70;99.90;;;;;;5015730;28;20185;-87
2023/02/06 00:56:45;;;;;;;2.70;2.50;;;-2.20;99.90;;;;;;5033717;28;20178;-87
2023/02/06 00:59:11;;;;;;;2.97;2.50;;;-2.80;99.90;;;;;;5015269;28;20186;-89
2023/02/06 01:01:37;;;;;;;3.57;2.70;;;-2.30;99.90;;;;;;5033326;28;20283;-88
2023/02/06 01:04:03;;;;;;;4.43;4.03;;;;;;;;;;4999391;28;20513;-88
2023/02/06 01:06:28;;;;;;;2.10;1.97;;;-2.90;99.90;;;;;;5016505;28;20187;-88
2023/02/06 01:08:54;;;;;;;5.00;4.17;;;-1.60;99.90;;;;;;5034494;28;20180;-88
2023/02/06 01:11:26;;;;;;;6.93;3.10;;;-2.90;99.90;;;;;;4999282;28;20271;-88
2023/02/06 01:13:52;;;;;;;4.27;2.90;;;;;;;;;;5033597;28;20168;-87
2023/02/06 01:16:21;;;;;;;3.97;2.57;;;-3.00;99.90;;;;;;5021181;28;20211;-86
2023/02/06 01:18:47;;;;;;;6.40;3.70;;;;;;;;;;5017552;28;20183;-89
2023/02/06 01:21:23;;;;;;;2.57;2.33;;;-3.00;99.90;;;;;;5015496;28;20323;-88
2023/02/06 01:23:56;;;;;;;3.40;2.80;;;-2.90;99.90;;;;;;5015551;28;20181;-88
2023/02/06 01:26:25;;;;;;;10.43;4.47;;;-3.00;99.90;;;;;;5020396;28;20180;-91
2023/02/06 01:28:54;;;;;;;5.63;3.53;;;;;;;;;;5021283;28;20188;-89
2023/02/06 01:31:33;;;;;;;3.07;2.00;;;-3.00;99.90;;;;;;5001257;28;20247;-88
2023/02/06 01:33:59;;;;;;;6.10;3.20;;;;;;;;;;5018210;28;20185;-88
2023/02/06 01:36:41;;;;;;;;;;;;;;;;;;;;;
2023/02/06 01:39:10;;;;;;;3.63;3.33;;;;;;;;;;5018497;28;20172;-88
2023/02/06 01:41:38;;;;;;;3.27;2.47;;;;;;;;;;5015639;28;20181;-88
2023/02/06 01:44:21;;;;;;;4.23;2.90;;;-3.00;99.90;;;;;;4999394;28;20277;-87
2023/02/06 01:46:51;;;;;;;5.50;2.40;;;-3.00;99.90;;;;;;5032824;28;20168;-87
2023/02/06 01:49:43;;;;;;;3.77;2.43;;;-3.00;99.90;;;;;;5015442;28;20182;-87
2023/02/06 01:52:09;;;;;;;2.93;2.73;;;;;;;;;;5015481;28;20281;-87
2023/02/06 01:54:35;;;;;;;2.83;2.63;;;;;;;;;;5014741;28;20237;-87
2023/02/06 01:57:05;;;;;;;1.43;1.43;;;-2.90;99.90;;;;;;5032869;28;20182;-87
2023/02/06 01:59:31;;;;;;;2.30;2.10;;;;;;;;;;5035055;28;20168;-87
2023/02/06 02:01:57;;;;;;;2.57;2.43;;;;;;;;;;5017897;28;20547;-87
2023/02/06 02:04:27;;;;;;;4.00;2.83;;;-2.90;99.90;;;;;;5001721;28;20739;-86
2023/02/06 02:07:05;;;;;;;3.87;2.10;;;-2.90;99.90;;;;;;5018627;28;20709;-87
2023/02/06 02:09:31;;;;;;;4.23;2.73;;;;;;;;;;5018416;28;20657;-87
2023/02/06 02:11:57;;;;;;;7.43;2.93;;;;;;;;;;5036258;28;20243;-87
2023/02/06 02:14:23;;;;;;;3.57;3.27;;;;;;;;;;5002391;28;20229;-87
2023/02/06 02:17:15;;;;;;;4.60;2.90;;;-3.00;99.90;;;;;;5018535;28;20192;-88
2023/02/06 02:20:15;;;;;;;5.63;3.70;;;-3.00;99.90;;;;;;5018364;28;20180;-87
2023/02/06 02:23:04;;;;;;;4.70;2.73;;;-3.00;99.90;;;;;;5036223;28;20161;-87
2023/02/06 02:25:30;;;;;;;5.87;3.17;;;;;;;;;;5035998;28;20254;-89
2023/02/06 02:28:30;;;;;;;2.70;2.30;;;-3.00;99.90;;;;;;5018218;28;20295;-87
2023/02/06 02:31:18;;;;;;;7.17;3.43;;;-3.00;99.90;;;;;;5018320;28;20256;-87
2023/02/06 02:33:58;;;;;;;4.17;1.93;;;-3.00;99.90;;;;;;5018202;28;20181;-87
2023/02/06 02:36:46;;;;;;;2.93;2.50;;;-3.10;99.90;;;;;;5018237;28;20226;-87
2023/02/06 02:39:37;;;;;;;3.77;1.97;;;-3.10;99.90;;;;;;5018073;28;20179;-88
2023/02/06 02:42:25;;;;;;;5.00;3.10;;;-3.00;99.90;;;;;;5035796;28;20178;-88
2023/02/06 02:45:13;;;;;;;4.90;3.67;;;-3.00;99.90;;;;;;5017933;28;20240;-88
2023/02/06 02:47:49;;;;;;;2.40;2.20;;;-3.00;99.90;;;;;;5017722;28;20183;-88
2023/02/06 02:50:16;;;;;;;2.03;1.93;;;-3.00;99.90;;;;;;5035736;28;20176;-88
2023/02/06 02:52:42;;;;;;;5.00;3.10;;;;;;;;;;5001311;28;20179;-88
2023/02/06 02:55:19;;;;;;;2.47;2.30;;;-3.10;99.90;;;;;;5035572;28;20223;-88
2023/02/06 02:57:48;;;;;;;1.93;1.83;;;-3.10;99.90;;;;;;5017525;28;20186;-88
2023/02/06 03:00:16;;;;;;;3.23;2.93;;;-3.00;99.90;;;;;;5001442;28;20198;-88
2023/02/06 03:02:43;;;;;;;2.33;2.07;;;-3.10;99.90;;;;;;5035259;28;20643;-88
2023/02/06 03:05:13;;;;;;;2.00;1.90;;;-3.10;99.90;;;;;;5017361;28;20703;-87
2023/02/06 03:08:00;;;;;;;1.90;1.80;;;-1.70;99.90;;;;;;5017364;28;20184;-87
2023/02/06 03:10:44;;;;;;;7.90;2.97;;;-3.00;99.90;;;;;;5016124;28;20189;-87
2023/02/06 03:13:25;;;;;;;2.50;2.30;;;-0.70;99.90;;;;;;5017405;28;20183;-87
2023/02/06 03:16:22;;;;;;;4.37;3.17;;;-3.00;99.90;;;;;;5034330;28;20602;-88
2023/02/06 03:19:06;;;;;;;2.27;2.17;;;-3.10;99.90;;;;;;5014817;28;20168;-88
2023/02/06 03:21:35;;;;;;;3.10;2.67;;;-3.10;99.90;;;;;;4997222;28;20243;-88
2023/02/06 03:24:09;;;;;;;4.73;2.50;;;-3.10;99.90;;;;;;4997609;28;20371;-88
2023/02/06 03:26:36;;;;;;;2.53;2.10;;;;;;;;;;5015135;28;20178;-88
2023/02/06 03:29:07;;;;;;;1.47;1.47;;;-3.10;99.90;;;;;;5021258;28;20196;-87
2023/02/06 03:31:56;;;;;;;6.67;3.10;;;-3.10;99.90;;;;;;5034763;28;20178;-87
2023/02/06 03:34:24;;;;;;;1.20;1.20;;;;;;;;;;5016961;28;20569;-87
2023/02/06 03:36:55;;;;;;;2.33;2.23;;;-3.10;99.90;;;;;;5016766;28;20191;-87
2023/02/06 03:39:24;;;;;;;4.07;2.30;;;-3.10;99.90;;;;;;5034164;28;20192;-88
2023/02/06 03:41:52;;;;;;;1.93;1.87;;;-3.10;99.90;;;;;;5033958;28;20621;-88
2023/02/06 03:44:27;;;;;;;4.00;3.40;;;-3.00;99.90;;;;;;5016771;28;20195;-88
2023/02/06 03:46:55;;;;;;;7.80;2.87;;;-3.10;99.90;;;;;;5034344;28;20175;-87
2023/02/06 03:49:25;;;;;;;3.90;3.50;;;-3.10;99.90;;;;;;5033369;28;20219;-87
2023/02/06 03:52:04;;;;;;;1.77;1.70;;;-3.30;99.90;;;;;;5016147;28;20204;-87
2023/02/06 03:54:32;;;;;;;5.23;3.47;;;-3.30;99.90;;;;;;5033605;28;20195;-87
2023/02/06 03:57:04;;;;;;;2.00;1.90;;;-3.30;99.90;;;;;;5016350;28;20539;-86
2023/02/06 03:59:33;;;;;;;4.13;3.17;;;;;;;;;;5016388;28;20189;-87
2023/02/06 04:02:01;;;;;;;2.97;2.13;;;-3.30;99.90;;;;;;5016299;28;20183;-87
2023/02/06 04:04:37;;;;;;;5.33;3.97;;;-3.30;99.90;;;;;;5015933;28;20194;-88
2023/02/06 04:07:14;;;;;;;3.33;3.03;;;-3.40;99.90;;;;;;5034352;28;20166;-88
2023/02/06 04:09:40;;;;;;;8.57;3.73;;;-3.40;99.90;;;;;;5016294;28;20607;-88
2023/02/06 04:12:07;;;;;;;6.47;2.27;;;;;;;;;;5033778;28;20201;-87
2023/02/06 04:14:34;;;;;;;4.67;3.60;;;;;;;;;;5016630;28;20216;-87
2023/02/06 04:17:00;;;;;;;3.37;2.77;;;;;;;;;;5016363;28;20263;-88
2023/02/06 04:19:26;;;;;;;4.53;3.50;;;;;;;;;;5016045;28;20272;-87
2023/02/06 04:21:51;;;;;;;3.33;3.13;;;-3.30;99.90;;;;;;5033208;28;20321;-86
2023/02/06 04:24:17;;;;;;;6.63;3.47;;;;;;;;;;5016704;28;20274;-88
2023/02/06 04:26:43;;;;;;;4.43;4.03;;;-3.30;99.90;;;;;;4996690;28;20192;-87
2023/02/06 04:29:11;;;;;;;5.07;3.53;;;;;;;;;;4997558;28;20654;-87
2023/02/06 04:31:37;;;;;;;3.57;3.17;;;-3.40;99.90;;;;;;5008629;28;20249;-87
2023/02/06 04:34:03;;;;;;;3.77;2.67;;;-2.30;99.90;;;;;;4983603;28;20183;-87
2023/02/06 04:36:29;;;;;;;5.43;3.67;;;;;;;;;;5015958;28;20563;-87
2023/02/06 04:38:55;;;;;;;5.57;3.13;;;-3.50;99.90;;;;;;4999591;28;20196;-88
2023/02/06 04:41:20;;;;;;;3.00;2.80;;;-3.50;99.90;;;;;;4999401;28;20198;-87
2023/02/06 04:43:46;;;;;;;10.80;3.67;;;-2.40;99.90;;;;;;5016096;28;20199;-86
2023/02/06 04:46:12;;;;;;;7.87;3.60;;;-3.60;99.90;;;;;;5027059;28;20241;-88
2023/02/06 04:48:37;;;;;;;16.60;7.67;;;-3.10;99.90;;;;;;4997291;28;20638;-86
2023/02/06 04:51:04;;;;;;;16.10;9.33;;;-3.60;99.90;;;;;;4998082;28;20266;-84
2023/02/06 04:53:29;;;;;;;33.53;11.50;;;-3.60;99.90;;;;;;5015926;28;20184;-84
2023/02/06 04:56:13;;;;;;;22.13;6.50;;;-2.50;99.90;;;;;;4998855;28;20223;-84
2023/02/06 04:58:39;;;;;;;13.37;7.37;;;;;;;;;;5024616;28;20240;-84
2023/02/06 05:01:05;;;;;;;9.50;6.07;;;-3.60;99.90;;;;;;5034947;28;20264;-84
2023/02/06 05:03:31;;;;;;;6.57;4.53;;;-3.60;99.90;;;;;;5035370;28;20636;-84
2023/02/06 05:06:01;;;;;;;5.47;4.63;;;-3.40;99.90;;;;;;5034018;28;20277;-84
2023/02/06 05:08:27;;;;;;;7.13;4.90;;;-3.70;99.90;;;;;;5037742;28;20229;-85
2023/02/06 05:10:54;;;;;;;6.23;2.50;;;-3.00;99.90;;;;;;5002072;28;20235;-85
2023/02/06 05:13:20;;;;;;;9.73;4.73;;;-3.80;99.90;;;;;;5028525;28;20331;-84
2023/02/06 05:15:45;;;;;;;14.17;4.97;;;-3.80;99.90;;;;;;5023446;28;20235;-84
2023/02/06 05:18:12;;;;;;;6.77;4.50;;;-3.80;99.90;;;;;;5029418;28;20656;-84
2023/02/06 05:20:38;;;;;;;9.03;5.37;;;-3.70;99.90;;;;;;4997392;28;20725;-84
2023/02/06 05:23:03;;;;;;;5.63;4.50;;;-3.80;99.90;;;;;;4984789;28;20185;-83
2023/02/06 05:25:29;;;;;;;2.67;2.47;;;-3.80;99.90;;;;;;4999505;28;20740;-87
2023/02/06 05:27:56;;;;;;;4.27;3.60;;;-3.50;99.90;;;;;;4978429;28;20200;-84
2023/02/06 05:30:22;;;;;;;5.07;3.90;;;;;;;;;;5014281;28;20687;-83
2023/02/06 05:32:48;;;;;;;11.40;4.23;;;-3.80;99.90;;;;;;5013841;28;20197;-85
2023/02/06 05:35:14;;;;;;;4.27;3.63;;;-2.60;99.90;;;;;;5011317;28;20223;-84
2023/02/06 05:37:39;;;;;;;7.27;4.27;;;-3.80;99.90;;;;;;5029735;28;20277;-84
2023/02/06 05:40:06;;;;;;;8.60;4.37;;;-3.00;99.90;;;;;;5033087;28;20692;-84
2023/02/06 05:42:32;;;;;;;6.70;4.73;;;-3.80;99.90;;;;;;5045345;28;20210;-84
2023/02/06 05:44:57;;;;;;;7.13;3.90;;;-2.30;99.90;;;;;;5019135;28;20640;-87
2023/02/06 05:47:24;;;;;;;8.73;5.07;;;-3.80;99.90;;;;;;5027679;28;20275;-84
2023/02/06 05:49:50;;;;;;;5.50;4.10;;;-3.90;99.90;;;;;;5011155;28;20233;-83
2023/02/06 05:52:16;;;;;;;5.37;3.67;;;-2.90;99.90;;;;;;5028528;28;20184;-83
2023/02/06 05:54:42;;;;;;;8.80;3.87;;;-3.50;99.90;;;;;;5046650;28;20218;-85
2023/02/06 05:57:08;;;;;;;8.10;4.40;;;;;;;;;;5026104;28;20191;-83
2023/02/06 05:59:34;;;;;;;3.83;3.57;;;;;;;;;;5035200;28;20180;-85
2023/02/06 06:02:01;;;;;;;5.87;4.83;;;-3.90;99.90;;;;;;5012870;28;20185;-86
2023/02/06 06:04:27;;;;;;;10.60;6.07;;;-3.90;99.90;;;;;;5019851;28;20253;-86
2023/02/06 06:06:52;;;;;;;5.67;3.43;;;-4.00;99.90;;;;;;4983990;28;20194;-85
2023/02/06 06:09:18;;;;;;;4.63;4.33;;;-2.80;99.90;;;;;;5013805;28;20218;-85
2023/02/06 06:11:43;;;;;;;12.87;6.40;;;-4.10;99.90;;;;;;5027460;28;20363;-84
2023/02/06 06:14:11;;;;;;;14.37;7.07;;;-4.10;99.90;;;;;;5017928;28;20189;-85
2023/02/06 06:16:37;;;;;;;7.93;4.27;;;-2.70;99.90;;;;;;5007794;28;20756;-85
2023/02/06 06:19:03;;;;;;;11.43;5.70;;;-3.70;99.90;;;;;;5001687;28;20183;-88
2023/02/06 06:21:29;;;;;;;6.57;4.00;;;-3.10;99.90;;;;;;5011985;28;20597;-85
2023/02/06 06:23:55;;;;;;;4.33;4.03;;;-2.00;99.90;;;;;;5022805;28;20225;-85
2023/02/06 06:26:20;;;;;;;4.87;4.47;;;-4.10;99.90;;;;;;5031236;28;20806;-87
2023/02/06 06:28:46;;;;;;;5.33;4.83;;;-4.10;99.90;;;;;;5028888;28;20192;-86
2023/02/06 06:31:13;;;;;;;5.47;3.43;;;;;;;;;;5029505;28;20274;-86
2023/02/06 06:33:40;;;;;;;10.33;5.83;;;-4.10;99.90;;;;;;5043466;28;20183;-86
2023/02/06 06:36:07;;;;;;;4.47;3.73;;;-3.20;99.90;;;;;;5043551;28;20297;-88
2023/02/06 06:38:33;;;;;;;3.27;3.07;;;-4.10;99.90;;;;;;5012494;28;20192;-85
2023/02/06 06:40:59;;;;;;;5.47;4.73;;;;;;;;;;5021789;28;20198;-85
2023/02/06 06:43:25;;;;;;;12.07;4.63;;;;;;;;;;4991612;28;20246;-86
2023/02/06 06:45:51;;;;;;;3.37;2.23;;;;;;;;;;5007521;28;20182;-86
2023/02/06 06:48:17;;;;;;;20.17;6.07;;;;;;;;;;5012351;28;20190;-86
2023/02/06 06:50:43;;;;;;;6.00;4.60;;;;;;;;;;5005158;28;20283;-86
2023/02/06 06:53:09;;;;;;;8.80;4.97;;;;;;;;;;5034213;28;20553;-86
2023/02/06 06:55:35;;;;;;;6.50;4.93;;;;;;;;;;5015209;28;20298;-86
2023/02/06 06:58:02;;;;;;;7.50;4.70;;;;;;;;;;5013410;28;20282;-86
2023/02/06 07:00:28;;;;;;;5.90;5.30;;;;;;;;;;5016182;28;20470;-86
2023/02/06 07:02:54;;;;;;;6.33;4.80;;;;;;;;;;4998542;28;20211;-87
2023/02/06 07:05:20;;;;;;;5.93;3.50;;;;;;;;;;5011163;28;20195;-87
2023/02/06 07:07:46;;;;;;;5.93;3.90;;;;;;;;;;5032267;28;20193;-86
2023/02/06 07:10:12;;;;;;;6.83;6.03;;;;;;;;;;4997855;28;20203;-86
2023/02/06 07:12:38;;;;;;;6.93;4.87;;;-3.70;99.90;;;;;;5007622;28;20518;-86
2023/02/06 07:15:05;;;;;;;12.40;5.27;;;-3.30;99.90;;;;;;4989729;28;20214;-87
2023/02/06 07:17:31;;;;;;;4.57;3.70;;;;;;;;;;5002655;28;20196;-87
2023/02/06 07:19:58;;;;;;;12.83;6.57;;;-3.70;99.90;;;;;;5027128;28;20237;-87
2023/02/06 07:22:24;;;;;;;6.60;4.47;;;;;;;;;;4996750;28;20722;-88
2023/02/06 07:24:50;;;;;;;9.97;7.50;;;;;;;;;;5015459;28;20201;-87
2023/02/06 07:27:17;;;;;;;5.80;4.67;;;;;;;;;;5034376;28;20223;-88
2023/02/06 07:29:43;;;;;;;7.17;4.83;;;;;;;;;;5035641;28;20214;-87
2023/02/06 07:32:10;;;;;;;13.77;6.73;;;-3.60;99.90;;;;;;5019781;28;20222;-87
2023/02/06 07:34:36;;;;;;;6.80;4.80;;;-3.50;99.90;;;;;;5016529;28;20282;-87
2023/02/06 07:37:06;;;;;;;12.30;4.57;;;-3.50;99.90;;;;;;5034392;28;20203;-87
2023/02/06 07:39:32;;;;;;;8.87;5.07;;;;;;;;;;5000935;28;20195;-89
2023/02/06 07:41:58;;;;;;;4.37;4.03;;;;;;;;;;4997665;28;20200;-88
2023/02/06 07:44:24;;;;;;;9.17;5.87;;;;;;;;;;4986504;28;20189;-88
2023/02/06 07:46:51;;;;;;;6.13;5.57;;;;;;;;;;5029248;28;20196;-87
2023/02/06 07:49:17;;;;;;;14.20;6.60;;;-3.50;99.90;;;;;;5001992;28;20279;-88
2023/02/06 07:51:44;;;;;;;7.70;5.33;;;-3.60;99.90;;;;;;5002297;28;20632;-87
2023/02/06 07:54:10;;;;;;;19.17;6.87;;;;;;;;;;5035480;28;20190;-87
2023/02/06 07:56:36;;;;;;;13.17;7.13;;;;;;;;;;5042841;28;20208;-87
2023/02/06 07:59:03;;;;;;;17.33;8.27;;;;;;;;;;5032825;28;20182;-88
2023/02/06 08:01:29;;;;;;;15.53;6.03;;;;;;;;;;5034248;28;20249;-88
2023/02/06 08:03:58;;;;;;;6.90;4.97;;;-3.60;99.90;;;;;;5033186;28;20192;-88
2023/02/06 08:06:24;;;;;;;17.70;7.80;;;-3.60;99.90;;;;;;5031705;28;20202;-87
2023/02/06 08:08:50;;;;;;;8.30;5.00;;;-3.40;99.90;;;;;;5048398;28;20191;-87
2023/02/06 08:11:18;;;;;;;10.70;5.90;;;-3.30;99.90;;;;;;5022341;28;20191;-87
2023/02/06 08:13:45;;;;;;;5.60;4.40;;;-3.30;99.90;;;;;;5034515;28;20631;-87
2023/02/06 08:16:14;;;;;;;4.77;4.33;;;-3.30;99.90;;;;;;5033735;28;20246;-87
2023/02/06 08:18:40;;;;;;;12.97;6.80;;;;;;;;;;5032696;28;20187;-86
2023/02/06 08:21:10;;;;;;;33.60;14.13;;;-3.50;99.90;;;;;;5016173;28;20252;-86
2023/02/06 08:23:36;;;;;;;14.67;8.93;;;;;;;;;;5015610;28;20184;-86
2023/02/06 08:26:13;;;;;;;23.57;11.90;;;-3.60;99.90;;;;;;5015727;28;20322;-86
2023/02/06 08:28:39;;;;;;;14.30;8.17;;;;;;;;;;5016808;28;20190;-87
2023/02/06 08:31:10;;;;;;;26.07;8.90;;;-4.10;99.90;;;;;;5017386;28;20195;-86
2023/02/06 08:33:36;;;;;;;12.70;6.00;;;;;;;;;;5015461;28;20193;-86
2023/02/06 08:36:03;;;;;;;13.23;8.40;;;-3.80;99.90;;;;;;5033507;28;20213;-86
2023/02/06 08:38:29;;;;;;;18.80;10.00;;;-3.80;99.90;;;;;;5033622;28;20184;-87
2023/02/06 08:40:55;;;;;;;20.47;10.27;;;;;;;;;;5016067;28;20187;-86
2023/02/06 08:43:21;;;;;;;26.93;7.27;;;;;;;;;;4999634;28;20625;-87
2023/02/06 08:45:48;;;;;;;14.73;7.63;;;-3.60;99.90;;;;;;5015793;28;20184;-86
2023/02/06 08:48:14;;;;;;;27.37;7.40;;;;;;;;;;5015751;28;20190;-87
2023/02/06 08:50:40;;;;;;;13.73;7.83;;;;;;;;;;5031501;28;20279;-86
2023/02/06 08:53:06;;;;;;;11.70;6.97;;;;;;;;;;5015526;28;20193;-87
2023/02/06 08:55:32;;;;;;;14.20;8.87;;;;;;;;;;4999049;28;20212;-86
2023/02/06 08:57:58;;;;;;;24.93;8.40;;;;;;;;;;4999020;28;20293;-84
2023/02/06 09:00:24;;;;;;;19.33;7.40;;;-3.10;99.90;;;;;;5032222;28;20223;-86
2023/02/06 09:02:53;;;;;;;20.17;6.63;;;-3.30;99.90;;;;;;4998594;28;20220;-87
2023/02/06 09:05:20;;;;;;;26.33;9.17;;;-3.10;99.90;;;;;;4998640;28;20210;-86
2023/02/06 09:07:46;;;;;;;40.47;12.00;;;-3.10;99.90;;;;;;5000264;28;20250;-86
2023/02/06 09:10:13;;;;;;;32.13;10.83;;;;;;;;;;5019248;28;20190;-85
2023/02/06 09:12:38;;;;;;;25.00;10.93;;;-3.00;99.90;;;;;;5036250;28;20633;-86
2023/02/06 09:15:05;;;;;;;28.60;11.57;;;-3.40;99.90;;;;;;5019141;28;20217;-86
2023/02/06 09:17:31;;;;;;;37.77;12.70;;;;;;;;;;5002825;28;20190;-86
2023/02/06 09:19:58;;;;;;;33.10;10.80;;;-3.60;99.90;;;;;;5018778;28;20183;-86
2023/02/06 09:22:24;;;;;;;38.17;12.93;;;-3.60;99.90;;;;;;5019113;28;20636;-86
2023/02/06 09:24:50;;;;;;;57.93;13.10;;;-3.50;99.90;;;;;;5017034;28;20197;-86
2023/02/06 09:27:15;;;;;;;14.80;6.83;;;-2.40;99.90;;;;;;5019192;28;20281;-87
2023/02/06 09:29:41;;;;;;;30.03;8.70;;;-2.00;99.90;;;;;;5032630;28;20200;-87
2023/02/06 09:32:07;;;;;;;8.97;8.10;;;;;;;;;;5036150;28;20214;-87
2023/02/06 09:34:33;;;;;;;44.70;8.60;;;-5.50;99.90;;;;;;5018580;28;20199;-87
2023/02/06 09:37:03;;;;;;;19.00;10.40;;;-2.60;99.90;;;;;;5002994;28;20694;-86
2023/02/06 09:39:30;;;;;;;47.97;13.77;;;;;;;;;;5001085;28;20192;-87
2023/02/06 09:42:14;;;;;;;34.77;12.33;;;-3.10;99.90;;;;;;5002284;28;20196;-85
2023/02/06 09:44:47;;;;;;;10.63;7.17;;;-3.00;99.90;;;;;;5019165;28;20188;-87
2023/02/06 09:47:26;;;;;;;16.33;9.17;;;-3.00;99.90;;;;;;5018243;28;20187;-84
2023/02/06 09:50:01;;;;;;;19.37;6.67;;;-2.50;99.90;;;;;;5016352;28;20237;-86
2023/02/06 09:52:55;;;;;;;17.10;9.00;;;-2.60;99.90;;;;;;4998767;28;20180;-85
2023/02/06 09:55:43;;;;;;;32.77;9.40;;;-2.40;99.90;;;;;;5017695;28;20226;-85
2023/02/06 09:58:24;;;;;;;55.93;18.77;;;-2.40;99.90;;;;;;5018140;28;20197;-85
2023/02/06 10:01:20;;;;;;;20.90;8.67;;;-2.60;99.90;;;;;;5018284;28;20179;-84
2023/02/06 10:04:00;;;;;;;29.57;9.80;;;-2.90;99.90;;;;;;4977323;28;20208;-84
2023/02/06 10:06:46;;;;;;;17.73;8.23;;;-3.10;99.90;;;;;;5035418;28;20168;-84
2023/02/06 10:09:38;;;;;;;29.63;7.43;;;-3.10;99.90;;;;;;5015486;28;20192;-85
2023/02/06 10:12:11;;;;;;;30.10;9.37;;;-2.90;99.90;;;;;;5016452;28;20297;-85
2023/02/06 10:14:48;;;;;;;12.47;7.60;;;-3.80;99.90;;;;;;5016025;28;20190;-86
2023/02/06 10:17:23;;;;;;;11.43;6.20;;;-2.90;99.90;;;;;;5018412;28;20203;-85
2023/02/06 10:20:09;;;;;;;31.83;10.40;;;-2.70;99.90;;;;;;5034442;28;20183;-85
2023/02/06 10:22:48;;;;;;;27.10;12.33;;;-2.40;99.90;;;;;;5017929;28;20190;-85
2023/02/06 10:25:14;;;;;;;22.33;9.77;;;;;;;;;;5017088;28;20193;-85
2023/02/06 10:27:42;;;;;;;36.40;15.50;;;-1.60;99.90;;;;;;5035541;28;20728;-85
2023/02/06 10:30:16;;;;;;;30.13;12.23;;;-1.50;99.90;;;;;;5016354;28;20181;-84
2023/02/06 10:32:50;;;;;;;36.93;11.47;;;-1.50;99.90;;;;;;4997951;28;20182;-85
2023/02/06 10:35:51;;;;;;;20.83;10.73;;;-1.30;99.90;;;;;;5014194;28;20242;-85
2023/02/06 10:38:34;;;;;;;32.30;12.30;;;-0.80;99.90;;;;;;5010298;28;20186;-85
2023/02/06 10:41:29;;;;;;;28.47;9.10;;;-1.30;99.90;;;;;;5035052;28;20191;-86
2023/02/06 10:44:22;;;;;;;20.67;8.57;;;-1.10;99.90;;;;;;5036242;28;20177;-84
2023/02/06 10:46:50;;;;;;;17.23;7.13;;;-1.30;99.90;;;;;;5032486;28;20200;-85
2023/02/06 10:49:34;;;;;;;23.67;10.43;;;-1.30;99.90;;;;;;5030136;28;20199;-85
2023/02/06 10:52:11;;;;;;;24.03;8.20;;;-1.30;99.90;;;;;;5014829;28;20193;-86
2023/02/06 10:54:41;;;;;;;32.33;11.63;;;-1.50;99.90;;;;;;5032441;28;20208;-85
2023/02/06 10:57:23;;;;;;;25.50;10.97;;;-1.50;99.90;;;;;;5035339;28;20158;-84
2023/02/06 10:59:51;;;;;;;28.70;12.87;;;-1.70;99.90;;;;;;5016121;28;20190;-85
2023/02/06 11:02:25;;;;;;;26.73;10.00;;;-1.00;99.90;;;;;;5016898;28;20218;-84
2023/02/06 11:05:00;;;;;;;15.60;8.03;;;-1.90;99.90;;;;;;5035157;28;20188;-85
2023/02/06 11:07:41;;;;;;;20.07;8.20;;;-1.70;99.90;;;;;;5016359;28;20189;-86
2023/02/06 11:10:11;;;;;;;26.53;10.97;;;-1.70;99.90;;;;;;5031092;28;20177;-85
2023/02/06 11:12:42;;;;;;;14.97;7.57;;;-1.50;99.90;;;;;;5034756;28;20602;-86
2023/02/06 11:15:39;;;;;;;21.00;9.27;;;-1.40;99.90;;;;;;5016858;28;20212;-85
2023/02/06 11:18:10;;;;;;;20.30;9.33;;;-1.30;99.90;;;;;;5000464;28;20248;-85
2023/02/06 11:20:36;;;;;;;11.10;6.10;;;;;;;;;;5034018;28;20230;-85
2023/02/06 11:23:21;;;;;;;37.30;9.97;;;-0.80;99.90;;;;;;5015503;28;20285;-84
2023/02/06 11:26:14;;;;;;;18.30;10.23;;;-0.70;99.90;;;;;;5016632;28;20186;-86
2023/02/06 11:29:00;;;;;;;33.10;11.93;;;-0.40;99.90;;;;;;5010164;28;20193;-86
2023/02/06 11:31:46;;;;;;;19.00;8.20;;;-0.40;99.90;;;;;;5031896;28;20185;-86
2023/02/06 11:34:17;;;;;;;16.07;6.13;;;-0.40;99.90;;;;;;5034778;28;20168;-86
2023/02/06 11:36:43;;;;;;;21.47;7.83;;;;;;;;;;5016025;28;20354;-86
2023/02/06 11:39:29;;;;;;;23.27;10.40;;;-0.40;99.90;;;;;;5016295;28;20284;-85
2023/02/06 11:42:05;;;;;;;30.03;10.80;;;-0.40;99.90;;;;;;5016463;28;20196;-86
2023/02/06 11:44:40;;;;;;;26.77;9.53;;;-0.30;99.90;;;;;;5034096;28;20195;-86
2023/02/06 11:47:27;;;;;;;34.27;12.00;;;0.00;99.90;;;;;;5033632;28;20164;-85
2023/02/06 11:49:53;;;;;;;20.13;10.13;;;0.10;99.90;;;;;;5016161;28;20211;-85
2023/02/06 11:52:32;;;;;;;12.27;6.80;;;0.30;99.90;;;;;;5016714;28;20208;-85
2023/02/06 11:55:01;;;;;;;20.97;9.13;;;0.50;99.90;;;;;;5015401;28;20291;-86
2023/02/06 11:57:33;;;;;;;19.27;8.90;;;0.00;99.90;;;;;;5016952;28;20181;-85
2023/02/06 12:00:21;;;;;;;31.00;7.87;;;0.00;99.90;;;;;;5015358;28;20700;-85
2023/02/06 12:02:52;;;;;;;52.90;7.60;;;-0.30;99.90;;;;;;5016361;28;20176;-85
2023/02/06 12:05:20;;;;;;;23.43;7.97;;;-0.30;99.90;;;;;;5032892;28;20181;-85
2023/02/06 12:07:59;;;;;;;25.13;10.70;;;-0.40;99.90;;;;;;5034433;28;20197;-85
2023/02/06 12:10:26;;;;;;;10.80;6.30;;;-0.80;99.90;;;;;;5030320;28;20796;-87
2023/02/06 12:13:01;;;;;;;17.07;6.97;;;-0.70;99.90;;;;;;5028573;28;20272;-89
2023/02/06 12:15:39;;;;;;;15.43;6.70;;;-0.30;99.90;;;;;;5031654;28;20207;-86
2023/02/06 12:18:12;;;;;;;13.60;6.60;;;0.20;99.90;;;;;;5030202;28;20280;-86
2023/02/06 12:20:53;;;;;;;19.00;10.10;;;1.50;99.90;;;;;;5016910;28;20230;-86
2023/02/06 12:23:36;;;;;;;20.43;7.93;;;1.50;99.90;;;;;;5011797;28;20684;-86
2023/02/06 12:26:09;;;;;;;14.30;7.03;;;1.50;99.90;;;;;;5032135;28;20187;-85
2023/02/06 12:29:19;;;;;;;19.77;9.07;;;1.50;99.90;;;;;;5015517;28;20244;-85
2023/02/06 12:31:57;;;;;;;21.03;7.80;;;1.10;99.90;;;;;;4918098;29;20275;-86
2023/02/06 12:34:41;;;;;;;14.93;7.33;;;0.70;99.90;;;;;;4934120;29;20181;-84
2023/02/06 12:37:20;;;;;;;16.83;6.80;;;0.40;99.90;;;;;;5004699;28;20235;-85
2023/02/06 12:39:46;;;;;;;19.97;6.90;;;0.40;99.90;;;;;;5011650;28;20193;-84
2023/02/06 12:42:35;;;;;;;21.07;9.30;;;0.60;99.90;;;;;;5015058;28;20303;-84
2023/02/06 12:45:24;;;;;;;16.17;7.47;;;0.30;99.90;;;;;;5022233;28;20201;-87
2023/02/06 12:47:56;;;;;;;21.13;8.37;;;0.30;99.90;;;;;;5014218;28;20260;-85
2023/02/06 12:50:35;;;;;;;12.07;5.43;;;0.70;99.90;;;;;;5032574;28;20167;-85
2023/02/06 12:53:35;;;;;;;17.33;6.77;;;0.70;99.90;;;;;;5032830;28;20550;-88
2023/02/06 12:56:19;;;;;;;15.27;6.17;;;0.80;99.90;;;;;;5009901;28;20220;-87
2023/02/06 12:59:01;;;;;;;17.03;8.27;;;1.00;99.90;;;;;;5025789;28;20266;-87
2023/02/06 13:01:27;;;;;;;16.53;8.73;;;;;;;;;;5014698;28;20238;-86
2023/02/06 13:04:03;;;;;;;9.23;6.07;;;1.00;99.90;;;;;;5032673;28;20184;-86
2023/02/06 13:06:52;;;;;;;18.53;8.23;;;0.90;99.90;;;;;;5013023;28;20188;-86
2023/02/06 13:09:43;;;;;;;20.97;9.27;;;0.40;99.90;;;;;;5003741;28;20599;-87
2023/02/06 13:12:23;;;;;;;23.20;9.13;;;0.30;99.90;;;;;;5014305;28;20187;-86
2023/02/06 13:14:55;;;;;;;19.07;7.03;;;1.00;99.90;;;;;;5032364;28;20166;-86
2023/02/06 13:17:31;;;;;;;9.77;6.17;;;1.00;99.90;;;;;;5032121;28;20164;-86
2023/02/06 13:20:14;;;;;;;26.13;8.87;;;1.30;99.90;;;;;;5032493;28;20160;-86
2023/02/06 13:22:50;;;;;;;24.93;12.30;;;1.50;99.90;;;;;;5015549;28;20253;-87
2023/02/06 13:25:26;;;;;;;17.70;8.70;;;2.00;99.90;;;;;;5032874;28;20206;-86
2023/02/06 13:27:53;;;;;;;21.67;8.43;;;1.80;99.90;;;;;;5015553;28;20575;-86
2023/02/06 13:30:28;;;;;;;17.63;8.37;;;2.50;99.00;;;;;;5013501;28;20192;-87
2023/02/06 13:33:15;;;;;;;28.60;11.30;;;2.60;99.10;;;;;;5014368;28;20195;-86